New Bedford, MA

5:58 AM EDT on April 28, 2017 (GMT -0400)
MNBDM3 | | Change Station
Active Advisory: Dense Fog Advisory

Elev 0 ft 41.62 °N, 70.91 °W | Updated 1 hour ago

Fog
Fog
54.0 °F
Feels Like 54.0 °F
N
4.0
Wind Variable Wind from SSW

Today
High -- | Low -- °F
--% Chance of Precip.
Yesterday
High -- | Low -- °F
Precip. -- in
Pressure 29.94 in
Visibility 0.5 miles
Clouds
Dew Point Not available.
Humidity Not available.
Rainfall 0.01 in
Snow Depth Not available.
5:44 AM 7:38 PM
Waxing Crescent, 5% visible
METAR KEWB 280953Z AUTO 16006KT 1/2SM R05/3500V4000FT FG VV002 13/13 A2993 RMK AO2 SLP136 T01330133
Pressure 29.94 in
Visibility 0.5 miles
Clouds
Dew Point Not available.
Humidity Not available.
Rainfall 0.01 in
Snow Depth Not available.
5:44 AM 7:38 PM
Waxing Crescent, 5% visible
METAR KEWB 280953Z AUTO 16006KT 1/2SM R05/3500V4000FT FG VV002 13/13 A2993 RMK AO2 SLP136 T01330133

Get Your Daily Forecast Email!

Thanks for signing up!

Be on the lookout for a verification email in your inbox.

You'll start receiving severe weather alerts in your inbox..

×

10-Day Weather Forecast

Almanac

Astronomy

Apr. 28, 2017 Rise Set
Actual Time
Civil Twilight
Nautical Twilight
Astronomical Twilight
Moon
Length of Visible Light
Length of Day
Tomorrow will be .
, % of the Moon is Illuminated

Today's Extremes

State Highs State Lows

Community

WunderPhotos

WunderBlog® & News

Nearby

Air Quality

  Air Quality AQ Index Pollutant
Not available.

Snow Depth

Station Depth Elevation

Earthquake Activity

City Distance Mag. Time & Date
Minimum magnitude displayed is 2.5.

Coastal Water Temperatures

Place Temperature

Stations

Nearby Weather Stations

Station Location Temp. Windchill Dew Point Humidity Wind Precip. Elev Updated Type
                   

Watches & Warnings

Dense Fog Advisory
Issued: 3:25 AM EDT Apr. 28, 2017 – National Weather Service

... Dense fog advisory now in effect until 8 am EDT this morning...

* location... south coastal Rhode Island and Massachusetts.
Including Cape Cod and the islands.

* Visibilities... one quarter to one half mile at times.

* Timing... into the morning hours.

* Impacts... visibility in fog may change rapidly and drop to
below a quarter mile at times. Motorists are urged to use
caution and allow for extra travel time and distance between
vehicles.

Precautionary/preparedness actions...

A dense fog advisory means visibilities will frequently be
reduced to less than one quarter mile, for at least 3 hours. If
driving, slow down, use your headlights, and leave plenty of
distance ahead of you.



For the latest updates... please visit our webpage at
www.Weather.Gov/Boston

You can follow US on facebook at
www.Facebook.Com/nwsboston